createdAt,value
2023-11-01T00:02:00.724Z,14.28
2023-11-01T00:04:28.773Z,14.24
2023-11-01T00:06:56.697Z,14.34
2023-11-01T00:09:24.656Z,14.26
2023-11-01T00:11:52.777Z,14.21
2023-11-01T00:14:21.957Z,14.14
2023-11-01T00:16:51.361Z,14.19
2023-11-01T00:19:19.472Z,14.29
2023-11-01T00:21:47.449Z,14.32
2023-11-01T00:24:15.456Z,14.31
2023-11-01T00:26:43.580Z,14.29
2023-11-01T00:29:11.548Z,14.26
2023-11-01T00:31:39.493Z,14.41
2023-11-01T00:34:08.974Z,14.41
2023-11-01T00:36:36.966Z,14.43
2023-11-01T00:39:05.292Z,14.45
2023-11-01T00:41:33.303Z,14.28
2023-11-01T00:44:01.239Z,14.12
2023-11-01T00:46:29.773Z,14.23
2023-11-01T00:48:57.848Z,14.14
2023-11-01T00:51:27.177Z,13.77
2023-11-01T00:53:55.101Z,14.08
2023-11-01T00:56:23.060Z,14.03
2023-11-01T00:58:50.956Z,13.90
2023-11-01T01:01:18.936Z,13.92
2023-11-01T01:03:47.023Z,13.94
2023-11-01T01:06:14.927Z,13.85
2023-11-01T01:08:44.223Z,13.94
2023-11-01T01:11:12.652Z,14.06
2023-11-01T01:13:40.627Z,14.02
2023-11-01T01:16:09.351Z,13.95
2023-11-01T01:18:37.335Z,14.09
2023-11-01T01:21:05.780Z,14.08
2023-11-01T01:23:33.780Z,14.36
2023-11-01T01:26:03.908Z,14.25
2023-11-01T01:28:31.857Z,14.01
2023-11-01T01:30:59.816Z,13.96
2023-11-01T01:33:27.858Z,13.84
2023-11-01T01:35:56.237Z,13.92
2023-11-01T01:38:24.149Z,13.85
2023-11-01T01:40:52.116Z,13.96
2023-11-01T01:43:22.933Z,13.95
2023-11-01T01:46:00.335Z,13.90
2023-11-01T01:48:28.456Z,13.91
2023-11-01T01:50:56.706Z,13.85
2023-11-01T01:53:24.958Z,13.83
2023-11-01T01:55:53.599Z,13.67
2023-11-01T01:58:23.677Z,13.66
2023-11-01T02:00:52.749Z,13.65
2023-11-01T02:03:20.785Z,13.74
2023-11-01T02:05:49.488Z,13.68
2023-11-01T02:08:18.317Z,13.71
2023-11-01T02:10:46.275Z,13.56
2023-11-01T02:13:15.731Z,13.64
2023-11-01T02:15:47.429Z,13.52
2023-11-01T02:18:15.929Z,13.56
2023-11-01T02:20:46.271Z,13.47
2023-11-01T02:23:17.517Z,13.53
2023-11-01T02:25:46.875Z,13.62
2023-11-01T02:28:16.833Z,13.70
2023-11-01T02:30:44.965Z,13.88
2023-11-01T02:33:12.948Z,13.96
2023-11-01T02:35:41.110Z,13.82
2023-11-01T02:38:09.071Z,13.94
2023-11-01T02:40:37.270Z,13.89
2023-11-01T02:43:06.587Z,13.71
2023-11-01T02:45:34.526Z,13.54
2023-11-01T02:48:02.484Z,13.59
2023-11-01T02:50:30.551Z,13.51
2023-11-01T02:52:58.726Z,13.37
2023-11-01T02:55:26.685Z,13.44
2023-11-01T02:57:54.668Z,13.58
2023-11-01T03:00:24.441Z,13.48
2023-11-01T03:02:55.213Z,13.48
2023-11-01T03:05:23.363Z,13.57
2023-11-01T03:07:51.277Z,13.62
2023-11-01T03:10:19.693Z,13.65
2023-11-01T03:12:48.074Z,13.80
2023-11-01T03:15:16.064Z,13.79
2023-11-01T03:17:45.428Z,13.77
2023-11-01T03:20:13.414Z,13.83
2023-11-01T03:22:41.420Z,13.74
2023-11-01T03:25:09.964Z,13.57
2023-11-01T03:27:37.972Z,13.72
2023-11-01T03:30:06.751Z,13.77
2023-11-01T03:32:34.738Z,13.79
2023-11-01T03:35:04.150Z,13.82
2023-11-01T03:37:32.221Z,13.76
2023-11-01T03:40:00.267Z,13.78
2023-11-01T03:42:28.165Z,13.86
2023-11-01T03:44:56.102Z,13.79
2023-11-01T03:47:24.117Z,13.85
2023-11-01T03:49:52.165Z,13.94
2023-11-01T03:52:22.024Z,13.96
2023-11-01T03:54:49.911Z,14.02
2023-11-01T03:57:17.869Z,13.95
2023-11-01T03:59:45.847Z,13.79
2023-11-01T04:02:14.091Z,13.96
2023-11-01T04:04:42.597Z,13.94
2023-11-01T04:07:10.603Z,13.91
2023-11-01T04:09:40.348Z,13.80
2023-11-01T04:12:08.877Z,13.85
2023-11-01T04:14:38.324Z,13.92
2023-11-01T04:17:07.009Z,13.89
2023-11-01T04:19:35.201Z,13.79
2023-11-01T04:22:03.398Z,13.80
2023-11-01T04:24:31.464Z,13.88
2023-11-01T04:27:00.769Z,13.91
2023-11-01T04:29:28.710Z,13.91
2023-11-01T04:31:56.805Z,13.86
2023-11-01T04:34:26.092Z,13.91
2023-11-01T04:36:53.994Z,13.97
2023-11-01T04:39:21.714Z,14.06
2023-11-01T04:41:49.792Z,14.09
2023-11-01T04:44:19.215Z,14.02
2023-11-01T04:46:47.122Z,14.03
2023-11-01T04:49:15.009Z,14.21
2023-11-01T04:51:42.969Z,14.15
2023-11-01T04:54:10.906Z,14.28
2023-11-01T04:56:38.865Z,14.44
2023-11-01T04:59:06.893Z,14.64
2023-11-01T05:01:36.440Z,14.68
2023-11-01T05:04:04.543Z,14.76
2023-11-01T05:06:32.528Z,14.91
2023-11-01T05:09:00.393Z,14.93
2023-11-01T05:11:28.404Z,14.98
2023-11-01T05:13:56.352Z,14.92
2023-11-01T05:16:24.471Z,14.93
2023-11-01T05:18:54.970Z,15.08
2023-11-01T05:21:22.903Z,15.27
2023-11-01T05:23:50.837Z,15.24
2023-11-01T05:26:19.360Z,15.39
2023-11-01T05:28:47.350Z,15.53
2023-11-01T05:31:15.378Z,15.63
2023-11-01T05:33:43.399Z,15.59
2023-11-01T05:36:15.522Z,15.67
2023-11-01T05:38:44.403Z,15.68
2023-11-01T05:41:12.734Z,15.65
2023-11-01T05:43:41.307Z,15.67
2023-11-01T05:46:09.340Z,15.81
2023-11-01T05:48:37.290Z,15.86
2023-11-01T05:51:06.540Z,15.86
2023-11-01T05:53:36.180Z,16.00
2023-11-01T05:56:09.837Z,16.00
2023-11-01T05:58:38.889Z,16.01
2023-11-01T06:01:08.355Z,16.03
2023-11-01T06:03:36.757Z,16.21
2023-11-01T06:06:05.401Z,16.13
2023-11-01T06:08:33.461Z,16.29
2023-11-01T06:11:03.055Z,16.29
2023-11-01T06:13:31.019Z,16.46
2023-11-01T06:16:05.410Z,16.47
2023-11-01T06:18:33.635Z,16.59
2023-11-01T06:21:01.737Z,16.72
2023-11-01T06:23:29.688Z,16.71
2023-11-01T06:25:57.863Z,16.64
2023-11-01T06:28:27.713Z,16.56
2023-11-01T06:30:57.387Z,16.48
2023-11-01T06:33:25.665Z,16.19
2023-11-01T06:35:53.757Z,16.41
2023-11-01T06:38:21.704Z,16.38
2023-11-01T06:40:49.678Z,16.09
2023-11-01T06:43:17.683Z,16.52
2023-11-01T06:45:47.271Z,16.55
2023-11-01T06:48:15.824Z,16.62
2023-11-01T06:50:43.858Z,16.59
2023-11-01T06:53:11.891Z,16.75
2023-11-01T06:55:39.795Z,16.69
2023-11-01T06:58:07.818Z,17.01
2023-11-01T07:00:35.732Z,17.12
2023-11-01T07:03:08.405Z,17.29
2023-11-01T07:05:38.025Z,17.41
2023-11-01T07:08:06.418Z,17.52
2023-11-01T07:10:34.358Z,17.66
2023-11-01T07:13:02.320Z,17.78
2023-11-01T07:15:30.438Z,17.68
2023-11-01T07:17:58.415Z,18.01
2023-11-01T07:20:27.984Z,17.84
2023-11-01T07:22:56.056Z,17.75
2023-11-01T07:25:24.142Z,18.12
2023-11-01T07:27:52.352Z,18.12
2023-11-01T07:30:20.392Z,18.15
2023-11-01T07:32:48.377Z,18.17
2023-11-01T07:35:16.496Z,18.19
2023-11-01T07:37:45.968Z,18.33
2023-11-01T07:40:14.199Z,18.50
2023-11-01T07:42:42.251Z,18.57
2023-11-01T07:45:11.132Z,18.61
2023-11-01T07:47:40.074Z,18.71
2023-11-01T07:50:11.630Z,18.64
2023-11-01T07:52:40.984Z,18.97
2023-11-01T07:55:10.773Z,18.97
2023-11-01T07:57:38.953Z,19.21
2023-11-01T08:00:08.673Z,19.28
2023-11-01T08:02:36.920Z,19.43
2023-11-01T08:05:06.887Z,19.64
2023-11-01T08:07:34.921Z,19.79
2023-11-01T08:10:03.069Z,19.96
2023-11-01T08:12:33.382Z,19.99
2023-11-01T08:15:01.372Z,20.00
2023-11-01T08:17:29.422Z,19.92
2023-11-01T08:19:57.739Z,20.07
2023-11-01T08:22:25.781Z,20.33
2023-11-01T08:24:53.821Z,20.28
2023-11-01T08:27:21.788Z,20.31
2023-11-01T08:29:51.248Z,20.40
2023-11-01T08:32:19.874Z,20.60
2023-11-01T08:34:47.946Z,20.56
2023-11-01T08:37:16.113Z,20.72
2023-11-01T08:39:44.112Z,20.50
2023-11-01T08:42:12.126Z,20.78
2023-11-01T08:44:40.413Z,20.80
2023-11-01T08:47:10.681Z,20.78
2023-11-01T08:49:38.870Z,20.97
2023-11-01T08:52:07.921Z,21.02
2023-11-01T08:54:36.151Z,21.12
2023-11-01T09:19:51.976Z,21.51
2023-11-01T09:22:19.899Z,21.36
2023-11-01T09:24:47.803Z,21.56
2023-11-01T09:27:16.003Z,21.78
2023-11-01T09:29:44.080Z,21.64
2023-11-01T09:32:14.037Z,21.72
2023-11-01T09:34:42.024Z,21.81
2023-11-01T09:37:11.366Z,21.92
2023-11-01T09:39:39.574Z,22.06
2023-11-01T09:42:15.617Z,22.07
2023-11-01T09:44:59.843Z,21.97
2023-11-01T09:47:47.033Z,21.89
2023-11-01T09:53:37.755Z,22.26
2023-11-01T09:56:29.830Z,22.19
2023-11-01T09:58:59.946Z,22.33
2023-11-01T10:01:43.215Z,22.39
2023-11-01T10:04:11.897Z,22.55
2023-11-01T10:06:39.928Z,22.45
2023-11-01T10:09:15.870Z,22.39
2023-11-01T10:11:44.626Z,22.60
2023-11-01T10:14:12.798Z,22.12
2023-11-01T10:16:41.211Z,22.71
2023-11-01T10:19:09.931Z,22.74
2023-11-01T10:21:37.830Z,22.78
2023-11-01T10:24:08.542Z,22.74
2023-11-01T10:26:37.848Z,22.94
2023-11-01T10:29:06.157Z,22.95
2023-11-01T10:31:34.358Z,22.98
2023-11-01T10:34:11.734Z,23.06
2023-11-01T10:36:51.603Z,23.19
2023-11-01T10:39:20.945Z,23.20
2023-11-01T10:41:51.879Z,23.07
2023-11-01T10:44:22.197Z,23.31
2023-11-01T10:46:51.305Z,23.12
2023-11-01T10:49:19.620Z,23.23
2023-11-01T10:51:49.412Z,23.41
2023-11-01T10:54:18.822Z,23.26
2023-11-01T10:56:49.482Z,22.79
2023-11-01T10:59:31.245Z,23.21
2023-11-01T11:02:09.943Z,23.33
2023-11-01T11:04:45.648Z,23.56
2023-11-01T11:07:24.242Z,23.34
2023-11-01T11:10:22.830Z,23.52
2023-11-01T11:13:27.454Z,23.61
2023-11-01T11:16:00.999Z,23.79
2023-11-01T11:18:50.831Z,23.66
2023-11-01T11:22:06.855Z,23.59
2023-11-01T11:24:53.564Z,23.64
2023-11-01T11:28:03.600Z,23.63
2023-11-01T11:31:04.523Z,23.74
2023-11-01T11:33:33.558Z,23.93
2023-11-01T11:36:12.916Z,24.03
2023-11-01T11:38:48.754Z,24.08
2023-11-01T11:41:18.225Z,24.16
2023-11-01T11:44:08.786Z,24.20
2023-11-01T11:46:41.410Z,23.90
2023-11-01T11:49:11.190Z,24.08
2023-11-01T11:51:40.363Z,23.83
2023-11-01T11:54:15.486Z,23.99
2023-11-01T11:56:44.361Z,24.05
2023-11-01T11:59:13.128Z,23.80
2023-11-01T12:01:42.521Z,23.23
2023-11-01T12:04:11.627Z,23.64
2023-11-01T12:06:45.245Z,23.85
2023-11-01T12:09:21.930Z,23.79
2023-11-01T12:11:51.905Z,23.77
2023-11-01T12:14:24.179Z,23.27
2023-11-01T12:16:54.980Z,23.57
2023-11-01T12:19:23.797Z,23.46
2023-11-01T12:21:53.405Z,23.54
2023-11-01T12:24:22.891Z,23.72
2023-11-01T12:27:01.228Z,23.86
2023-11-01T12:29:33.736Z,23.74
2023-11-01T12:32:04.908Z,23.72
2023-11-01T12:34:33.580Z,23.66
2023-11-01T12:37:02.981Z,24.07
2023-11-01T12:39:31.150Z,24.14
2023-11-01T12:41:59.112Z,24.25
2023-11-01T12:44:27.197Z,24.27
2023-11-01T12:46:59.248Z,24.28
2023-11-01T12:49:28.590Z,24.11
2023-11-01T12:51:56.473Z,23.97
2023-11-01T12:54:24.492Z,24.03
2023-11-01T12:56:52.526Z,23.55
2023-11-01T12:59:20.487Z,23.64
2023-11-01T13:01:48.685Z,23.48
2023-11-01T13:04:16.745Z,23.62
2023-11-01T13:06:46.523Z,23.47
2023-11-01T13:09:15.813Z,23.28
2023-11-01T13:11:43.806Z,23.48
2023-11-01T13:14:11.819Z,23.33
2023-11-01T13:16:39.800Z,23.24
2023-11-01T13:19:07.784Z,23.43
2023-11-01T13:21:35.787Z,23.36
2023-11-01T13:24:05.606Z,23.41
2023-11-01T13:26:33.966Z,23.35
2023-11-01T13:29:02.051Z,23.21
2023-11-01T13:31:30.093Z,23.11
2023-11-01T13:33:57.987Z,23.09
2023-11-01T13:36:26.152Z,23.13
2023-11-01T13:38:54.087Z,23.17
2023-11-01T13:41:23.418Z,23.05
2023-11-01T13:43:51.327Z,23.14
2023-11-01T13:46:19.421Z,23.22
2023-11-01T13:48:47.445Z,23.10
2023-11-01T13:51:15.649Z,23.13
2023-11-01T13:53:43.620Z,22.95
2023-11-01T13:56:11.615Z,23.13
2023-11-01T13:58:43.814Z,22.98
2023-11-01T14:01:11.804Z,22.87
2023-11-01T14:03:39.999Z,22.87
2023-11-01T14:06:09.353Z,22.94
2023-11-01T14:08:37.392Z,22.85
2023-11-01T14:11:07.566Z,22.78
2023-11-01T14:13:35.710Z,22.60
2023-11-01T14:16:05.549Z,22.51
2023-11-01T14:18:33.553Z,22.51
2023-11-01T14:21:04.087Z,22.59
2023-11-01T14:23:32.557Z,22.41
2023-11-01T14:26:01.019Z,22.27
2023-11-01T14:28:29.704Z,22.36
2023-11-01T14:31:00.600Z,22.22
2023-11-01T14:33:30.530Z,22.17
2023-11-01T14:35:58.586Z,22.15
2023-11-01T14:38:26.611Z,22.03
2023-11-01T14:40:54.634Z,22.02
2023-11-01T14:43:24.587Z,22.07
2023-11-01T14:45:52.629Z,22.07
2023-11-01T14:48:21.119Z,21.93
2023-11-01T14:50:50.662Z,21.79
2023-11-01T14:53:18.843Z,21.71
2023-11-01T14:55:46.783Z,21.65
2023-11-01T14:58:14.905Z,21.56
2023-11-01T15:00:46.630Z,21.65
2023-11-01T15:03:14.931Z,21.59
2023-11-01T15:05:42.995Z,21.52
2023-11-01T15:08:12.356Z,21.38
2023-11-01T15:10:40.313Z,21.33
2023-11-01T15:13:08.872Z,21.28
2023-11-01T15:15:36.983Z,20.97
2023-11-01T15:18:05.516Z,21.12
2023-11-01T15:20:33.676Z,21.03
2023-11-01T15:23:01.637Z,21.11
2023-11-01T15:25:31.035Z,21.05
2023-11-01T15:27:59.075Z,21.12
2023-11-01T15:30:27.040Z,20.77
2023-11-01T15:32:55.263Z,20.82
2023-11-01T15:35:23.906Z,20.90
2023-11-01T15:37:51.835Z,20.70
2023-11-01T15:40:19.903Z,20.76
2023-11-01T15:42:51.314Z,20.66
2023-11-01T15:45:19.877Z,20.25
2023-11-01T15:47:47.962Z,20.53
2023-11-01T15:50:16.339Z,20.48
2023-11-01T15:52:44.371Z,20.29
2023-11-01T15:55:12.406Z,20.28
2023-11-01T15:57:40.611Z,20.21
2023-11-01T16:00:11.775Z,20.09
2023-11-01T16:02:40.064Z,20.13
2023-11-01T16:05:08.494Z,20.17
2023-11-01T16:07:36.740Z,20.10
2023-11-01T16:10:05.063Z,19.96
2023-11-01T16:12:33.474Z,19.95
2023-11-01T16:15:02.131Z,19.83
2023-11-01T16:17:31.703Z,19.77
2023-11-01T16:20:01.555Z,19.79
2023-11-01T16:22:31.667Z,19.64
2023-11-01T16:24:59.621Z,19.60
2023-11-01T16:27:27.588Z,19.61
2023-11-01T16:29:55.656Z,19.41
2023-11-01T16:32:23.645Z,19.26
2023-11-01T16:34:53.009Z,19.30
2023-11-01T16:37:21.190Z,19.29
2023-11-01T16:39:49.449Z,19.28
2023-11-01T16:42:17.424Z,19.20
2023-11-01T16:44:45.634Z,19.19
2023-11-01T16:47:13.580Z,19.17
2023-11-01T16:49:44.109Z,19.11
2023-11-01T16:52:13.596Z,19.25
2023-11-01T16:54:41.509Z,19.20
2023-11-01T16:57:09.448Z,19.28
2023-11-01T16:59:37.417Z,19.25
2023-11-01T17:02:06.089Z,19.30
2023-11-01T17:04:35.866Z,18.95
2023-11-01T17:07:04.172Z,19.17
2023-11-01T17:09:33.648Z,19.09
2023-11-01T17:12:01.881Z,19.11
2023-11-01T17:14:29.917Z,19.06
2023-11-01T17:16:57.971Z,19.04
2023-11-01T17:19:26.051Z,19.03
2023-11-01T17:21:54.032Z,19.05
2023-11-01T17:24:26.038Z,19.09
2023-11-01T17:26:58.716Z,18.99
2023-11-01T18:52:12.275Z,16.68
2023-11-01T18:54:42.397Z,16.69
2023-11-01T18:57:15.530Z,16.74
2023-11-01T18:59:44.577Z,16.71
2023-11-01T19:02:42.300Z,16.40
2023-11-01T19:05:12.275Z,16.59
2023-11-01T19:07:44.740Z,16.53
2023-11-01T19:10:13.255Z,16.39
2023-11-01T19:12:41.864Z,16.52
2023-11-01T19:15:32.499Z,16.57
2023-11-01T19:18:00.504Z,16.52
2023-11-01T19:20:28.464Z,16.35
2023-11-01T19:22:58.024Z,16.51
2023-11-01T19:25:25.954Z,16.56
2023-11-01T19:27:53.874Z,16.51
2023-11-01T19:30:21.929Z,16.35
2023-11-01T19:32:49.941Z,16.53
2023-11-01T19:35:18.076Z,16.47
2023-11-01T19:37:46.113Z,16.39
2023-11-01T19:40:15.507Z,16.52
2023-11-01T19:42:43.528Z,16.53
2023-11-01T19:45:12.154Z,16.67
2023-11-01T19:47:40.073Z,16.76
2023-11-01T19:50:09.739Z,16.73
2023-11-01T19:52:37.928Z,16.82
2023-11-01T19:55:06.594Z,16.81
2023-11-01T19:57:36.396Z,16.72
2023-11-01T20:00:06.113Z,16.79
2023-11-01T20:02:34.581Z,16.67
2023-11-01T20:05:02.613Z,16.36
2023-11-01T20:07:30.532Z,16.21
2023-11-01T20:10:00.943Z,16.22
2023-11-01T20:12:29.049Z,16.40
2023-11-01T20:14:58.389Z,16.49
2023-11-01T20:17:26.347Z,16.49
2023-11-01T20:19:54.320Z,16.42
2023-11-01T20:22:22.256Z,16.44
2023-11-01T20:24:50.159Z,16.43
2023-11-01T20:27:19.953Z,16.51
2023-11-01T20:29:48.039Z,16.54
2023-11-01T20:32:17.322Z,16.35
2023-11-01T20:34:45.326Z,16.31
2023-11-01T20:37:13.255Z,16.01
2023-11-01T20:39:41.198Z,16.04
2023-11-01T20:42:09.491Z,16.22
2023-11-01T20:44:37.656Z,16.14
2023-11-01T20:47:06.542Z,16.18
2023-11-01T20:49:35.839Z,16.13
2023-11-01T20:52:03.815Z,16.20
2023-11-01T20:54:31.916Z,16.03
2023-11-01T20:56:59.870Z,15.96
2023-11-01T20:59:27.907Z,16.09
2023-11-01T21:01:55.830Z,16.16
2023-11-01T21:04:23.897Z,16.15
2023-11-01T21:06:53.270Z,16.16
2023-11-01T21:09:21.210Z,16.18
2023-11-01T21:11:50.108Z,16.15
2023-11-01T21:14:18.286Z,16.12
2023-11-01T21:16:46.268Z,16.13
2023-11-01T21:19:14.335Z,16.07
2023-11-01T21:21:42.395Z,16.02
2023-11-01T21:24:13.586Z,15.89
2023-11-01T21:26:41.586Z,15.61
2023-11-01T21:29:10.843Z,15.94
2023-11-01T21:31:38.794Z,15.79
2023-11-01T21:34:07.349Z,15.88
2023-11-01T21:36:35.264Z,15.86
2023-11-01T21:39:05.081Z,15.80
2023-11-01T21:41:34.840Z,15.68
2023-11-01T21:44:03.050Z,15.71
2023-11-01T21:46:32.435Z,15.60
2023-11-01T21:49:00.589Z,15.53
2023-11-01T21:51:30.492Z,15.23
2023-11-01T21:53:59.445Z,15.23
2023-11-01T21:56:36.030Z,15.23
2023-11-01T21:59:13.581Z,15.11
2023-11-01T22:01:41.723Z,14.97
2023-11-01T22:04:21.819Z,14.85
2023-11-01T22:06:51.929Z,14.85
2023-11-01T22:09:20.745Z,14.89
2023-11-01T22:11:52.432Z,14.77
2023-11-01T22:14:31.065Z,14.75
2023-11-01T22:17:00.658Z,14.68
2023-11-01T22:19:35.590Z,14.56
2023-11-01T22:22:05.822Z,14.48
2023-11-01T22:24:37.459Z,14.37
2023-11-01T22:27:10.816Z,14.25
2023-11-01T22:29:43.625Z,14.32
2023-11-01T22:32:22.917Z,14.22
2023-11-01T22:34:52.332Z,14.26
2023-11-01T22:37:22.424Z,14.31
2023-11-01T22:39:52.235Z,14.40
2023-11-01T22:42:23.150Z,14.38
2023-11-01T22:44:51.852Z,14.31
2023-11-01T22:47:19.854Z,14.23
2023-11-01T22:49:47.769Z,13.88
2023-11-01T22:52:15.659Z,14.18
2023-11-01T22:54:43.645Z,14.19
2023-11-01T22:57:11.821Z,14.08
2023-11-01T22:59:41.992Z,14.29
2023-11-01T23:02:10.949Z,14.12
2023-11-01T23:04:40.774Z,14.05
2023-11-01T23:07:10.738Z,14.01
2023-11-01T23:09:39.104Z,14.03
2023-11-01T23:12:10.044Z,13.64
2023-11-01T23:14:38.099Z,14.02
2023-11-01T23:17:08.513Z,14.07
2023-11-01T23:19:36.645Z,14.15
2023-11-01T23:22:04.766Z,13.90
2023-11-01T23:24:32.735Z,13.96
2023-11-01T23:27:05.839Z,13.93
2023-11-01T23:29:35.813Z,13.80
2023-11-01T23:32:11.873Z,13.69
2023-11-01T23:34:48.625Z,13.66
2023-11-01T23:37:23.159Z,13.67
2023-11-01T23:39:52.451Z,13.57
2023-11-01T23:42:21.559Z,13.44
2023-11-01T23:44:50.250Z,13.32
2023-11-01T23:47:38.985Z,13.40
2023-11-01T23:53:06.211Z,13.49
2023-11-01T23:55:34.796Z,13.62
2023-11-01T23:58:03.182Z,13.76
